createdAt,value
2019-02-17T00:04:30.614Z,76.37
2019-02-17T00:10:35.187Z,76.02
2019-02-17T00:16:40.873Z,77.40
2019-02-17T00:22:45.417Z,77.89
2019-02-17T00:28:58.919Z,78.53
2019-02-17T00:34:56.229Z,77.75
2019-02-17T00:41:00.838Z,78.30
2019-02-17T00:47:05.385Z,80.33
2019-02-17T00:53:09.922Z,80.35
2019-02-17T00:59:14.483Z,79.29
2019-02-17T01:05:19.027Z,79.31
2019-02-17T01:11:23.582Z,78.98
2019-02-17T01:17:28.199Z,80.19
2019-02-17T01:23:32.737Z,78.84
2019-02-17T01:29:37.294Z,78.72
2019-02-17T01:35:41.979Z,79.78
2019-02-17T01:41:46.541Z,80.45
2019-02-17T01:47:51.093Z,79.92
2019-02-17T01:53:55.636Z,80.30
2019-02-17T02:00:00.361Z,80.83
2019-02-17T02:06:05.108Z,81.51
2019-02-17T02:12:09.670Z,81.80
2019-02-17T02:18:14.224Z,82.30
2019-02-17T02:24:18.758Z,82.38
2019-02-17T02:30:23.319Z,82.97
2019-02-17T02:36:29.642Z,82.52
2019-02-17T02:42:34.287Z,82.08
2019-02-17T02:48:38.845Z,82.21
2019-02-17T02:54:43.384Z,81.41
2019-02-17T03:00:47.945Z,81.66
2019-02-17T03:06:54.172Z,82.04
2019-02-17T03:12:58.733Z,82.47
2019-02-17T03:19:03.272Z,83.95
2019-02-17T03:25:08.745Z,84.29
2019-02-17T03:31:13.276Z,82.98
2019-02-17T03:37:17.911Z,82.61
2019-02-17T03:43:22.545Z,83.37
2019-02-17T03:49:27.084Z,82.96
2019-02-17T03:55:31.630Z,82.82
2019-02-17T04:01:36.205Z,83.39
2019-02-17T04:07:40.755Z,83.57
2019-02-17T04:13:45.375Z,83.75
2019-02-17T04:19:49.930Z,84.51
2019-02-17T04:25:55.469Z,84.51
2019-02-17T04:32:00.026Z,84.41
2019-02-17T04:38:04.586Z,84.71
2019-02-17T04:44:09.157Z,84.96
2019-02-17T04:50:13.710Z,85.04
2019-02-17T04:56:18.257Z,84.96
2019-02-17T05:02:22.885Z,85.05
2019-02-17T05:08:27.445Z,86.10
2019-02-17T05:14:33.025Z,85.38
2019-02-17T05:20:37.593Z,85.85
2019-02-17T05:26:42.778Z,85.87
2019-02-17T05:32:47.700Z,86.09
2019-02-17T05:38:52.242Z,86.24
2019-02-17T05:44:56.799Z,86.54
2019-02-17T05:51:01.426Z,86.48
2019-02-17T05:57:05.971Z,86.32
2019-02-17T06:03:10.612Z,85.92
2019-02-17T06:09:15.151Z,86.64
2019-02-17T06:15:21.803Z,86.08
2019-02-17T06:21:26.350Z,86.46
2019-02-17T06:27:30.906Z,86.50
2019-02-17T06:33:35.456Z,88.33
2019-02-17T06:39:40.010Z,87.32
2019-02-17T06:45:44.554Z,86.90
2019-02-17T06:51:49.129Z,86.54
2019-02-17T06:57:53.678Z,89.42
2019-02-17T07:03:58.314Z,88.34
2019-02-17T07:10:02.871Z,86.93
2019-02-17T07:16:07.445Z,86.98
2019-02-17T07:22:12.004Z,87.18
2019-02-17T07:28:16.633Z,87.79
2019-02-17T07:34:21.175Z,87.15
2019-02-17T07:40:25.730Z,86.03
2019-02-17T07:46:30.283Z,85.38
2019-02-17T07:52:36.403Z,84.84
2019-02-17T07:58:40.945Z,83.60
2019-02-17T08:04:45.559Z,83.62
2019-02-17T08:10:51.045Z,81.77
2019-02-17T08:16:55.927Z,81.41
2019-02-17T08:23:00.594Z,80.72
2019-02-17T08:29:05.135Z,78.94
2019-02-17T08:35:10.121Z,77.67
2019-02-17T08:41:15.435Z,76.28
2019-02-17T08:47:19.983Z,77.03
2019-02-17T08:53:24.715Z,76.24
2019-02-17T08:59:29.583Z,75.56
2019-02-17T09:05:43.579Z,75.05
2019-02-17T09:11:40.413Z,74.29
2019-02-17T09:17:44.953Z,73.60
2019-02-17T09:23:49.594Z,73.71
2019-02-17T09:29:54.191Z,73.57
2019-02-17T09:35:59.320Z,73.69
2019-02-17T09:42:03.942Z,73.29
2019-02-17T09:48:08.506Z,73.44
2019-02-17T09:54:13.048Z,73.57
2019-02-17T10:00:17.783Z,72.69
2019-02-17T10:06:22.331Z,72.63
2019-02-17T10:12:26.888Z,72.66
2019-02-17T10:18:31.429Z,72.25
2019-02-17T10:24:38.328Z,72.71
2019-02-17T10:30:42.972Z,70.58
2019-02-17T10:36:47.541Z,70.05
2019-02-17T10:42:52.965Z,68.81
2019-02-17T10:48:57.841Z,66.73
2019-02-17T10:55:03.223Z,66.49
2019-02-17T11:01:07.789Z,67.12
2019-02-17T11:07:12.332Z,66.89
2019-02-17T11:13:16.894Z,65.77
2019-02-17T11:19:21.598Z,65.23
2019-02-17T11:25:26.159Z,65.43
2019-02-17T11:31:31.038Z,63.68
2019-02-17T11:37:37.638Z,62.23
2019-02-17T11:43:42.339Z,60.00
2019-02-17T11:49:50.432Z,59.19
2019-02-17T11:55:55.355Z,59.71
2019-02-17T12:01:59.991Z,57.65
2019-02-17T12:08:04.516Z,56.42
2019-02-17T12:14:09.088Z,56.25
2019-02-17T12:20:31.462Z,55.43
2019-02-17T12:26:55.776Z,54.03
2019-02-17T12:33:00.337Z,51.47
2019-02-17T12:39:06.035Z,52.10
2019-02-17T12:45:17.996Z,52.06
2019-02-17T12:51:19.890Z,50.76
2019-02-17T12:57:24.447Z,49.27
2019-02-17T13:03:29.483Z,48.31
2019-02-17T13:09:34.037Z,47.61
2019-02-17T13:15:38.591Z,48.78
2019-02-17T13:21:43.153Z,47.85
2019-02-17T13:27:49.000Z,47.31
2019-02-17T13:33:53.559Z,46.69
2019-02-17T13:39:58.121Z,45.50
2019-02-17T13:46:02.694Z,46.71
2019-02-17T13:52:07.241Z,46.15
2019-02-17T13:58:11.805Z,45.28
2019-02-17T14:04:16.363Z,44.91
2019-02-17T14:10:22.634Z,44.56
2019-02-17T14:16:27.210Z,43.80
2019-02-17T14:22:31.760Z,43.05
2019-02-17T14:28:36.303Z,44.10
2019-02-17T14:34:46.052Z,44.44
2019-02-17T14:40:50.608Z,44.40
2019-02-17T14:46:55.151Z,44.68
2019-02-17T14:52:59.723Z,44.49
2019-02-17T14:59:04.355Z,44.47
2019-02-17T15:05:10.520Z,45.39
2019-02-17T15:11:15.157Z,45.71
2019-02-17T15:17:20.214Z,47.35
2019-02-17T15:23:25.324Z,48.43
2019-02-17T15:29:32.102Z,50.14
2019-02-17T15:35:36.657Z,51.85
2019-02-17T15:41:41.213Z,53.33
2019-02-17T15:47:45.782Z,53.45
2019-02-17T15:53:50.338Z,53.58
2019-02-17T15:59:54.974Z,53.40
2019-02-17T16:05:59.523Z,54.21
2019-02-17T16:12:04.081Z,54.39
2019-02-17T16:18:08.622Z,54.95
2019-02-17T16:24:13.191Z,56.67
2019-02-17T16:30:23.027Z,57.41
2019-02-17T16:36:27.585Z,58.08
2019-02-17T16:42:32.222Z,58.90
2019-02-17T16:48:36.751Z,61.00
2019-02-17T16:54:41.316Z,61.71
2019-02-17T17:00:45.935Z,63.34
2019-02-17T17:06:50.565Z,64.29
2019-02-17T17:12:55.173Z,65.41
2019-02-17T17:19:01.136Z,66.15
2019-02-17T17:25:09.493Z,66.43
2019-02-17T17:31:14.057Z,67.28
2019-02-17T17:37:19.168Z,67.83
2019-02-17T17:43:23.711Z,67.94
2019-02-17T17:49:28.931Z,69.46
2019-02-17T17:55:33.537Z,69.05
2019-02-17T18:01:38.090Z,70.06
2019-02-17T18:07:42.635Z,69.23
2019-02-17T18:13:47.184Z,69.57
2019-02-17T18:19:51.725Z,68.62
2019-02-17T18:25:56.271Z,68.17
2019-02-17T18:32:00.856Z,67.75
2019-02-17T18:38:05.521Z,66.37
2019-02-17T18:44:10.076Z,64.87
2019-02-17T18:50:17.391Z,64.75
2019-02-17T18:56:21.937Z,65.39
2019-02-17T19:02:26.481Z,66.48
2019-02-17T19:08:31.035Z,65.53
2019-02-17T19:14:35.580Z,66.23
2019-02-17T19:20:41.556Z,66.25
2019-02-17T19:26:46.108Z,65.31
2019-02-17T19:32:53.766Z,65.54
2019-02-17T19:39:03.548Z,66.00
2019-02-17T19:45:19.013Z,67.28
2019-02-17T19:51:23.578Z,67.83
2019-02-17T19:57:28.121Z,68.75
2019-02-17T20:03:36.943Z,69.09
2019-02-17T20:09:41.483Z,69.27
2019-02-17T20:15:46.097Z,69.89
2019-02-17T20:21:50.666Z,70.05
2019-02-17T20:27:55.219Z,70.71
2019-02-17T20:33:59.752Z,69.92
2019-02-17T20:40:12.502Z,68.79
2019-02-17T20:46:17.068Z,68.28
2019-02-17T20:52:22.525Z,70.35
2019-02-17T20:58:27.069Z,71.70
2019-02-17T21:04:31.678Z,71.97
2019-02-17T21:10:36.220Z,72.29
2019-02-17T21:16:40.775Z,71.38
2019-02-17T21:22:45.548Z,70.90
2019-02-17T21:28:50.094Z,71.70
2019-02-17T21:34:54.643Z,70.50
2019-02-17T21:41:08.732Z,71.94
2019-02-17T21:47:06.411Z,71.91
2019-02-17T21:53:20.512Z,72.57
2019-02-17T21:59:17.540Z,73.08
2019-02-17T22:05:22.083Z,72.34
2019-02-17T22:11:26.633Z,71.44
2019-02-17T22:17:31.178Z,71.24
2019-02-17T22:23:35.719Z,71.35
2019-02-17T22:29:40.272Z,70.99
2019-02-17T22:35:45.408Z,70.91
2019-02-17T22:41:49.956Z,69.70
2019-02-17T22:47:55.178Z,70.29
2019-02-17T22:54:00.047Z,70.73
2019-02-17T23:00:07.890Z,70.51
2019-02-17T23:06:12.436Z,70.13
2019-02-17T23:12:17.137Z,70.55
2019-02-17T23:18:21.700Z,71.14
2019-02-17T23:24:26.420Z,69.85
2019-02-17T23:30:31.033Z,72.17
2019-02-17T23:36:35.590Z,72.83
2019-02-17T23:42:42.492Z,72.62
2019-02-17T23:48:47.360Z,73.88
2019-02-17T23:54:52.228Z,73.50
